sensor_id;sensor_type;location;lat;lon;timestamp;P1;durP1;ratioP1;P2;durP2;ratioP2
14518;SDS011;7346;50.846;4.388;2022-11-03T00:00:32;11.77;;;2.70;;
14518;SDS011;7346;50.846;4.388;2022-11-03T00:02:59;12.07;;;2.77;;
14518;SDS011;7346;50.846;4.388;2022-11-03T00:05:27;10.57;;;2.20;;
14518;SDS011;7346;50.846;4.388;2022-11-03T00:08:12;12.13;;;2.67;;
14518;SDS011;7346;50.846;4.388;2022-11-03T00:10:39;13.47;;;2.73;;
14518;SDS011;7346;50.846;4.388;2022-11-03T00:13:06;8.40;;;2.20;;
14518;SDS011;7346;50.846;4.388;2022-11-03T00:15:33;13.90;;;3.10;;
14518;SDS011;7346;50.846;4.388;2022-11-03T00:18:00;12.27;;;2.60;;
14518;SDS011;7346;50.846;4.388;2022-11-03T00:20:28;17.47;;;3.13;;
14518;SDS011;7346;50.846;4.388;2022-11-03T00:22:55;8.40;;;2.20;;
14518;SDS011;7346;50.846;4.388;2022-11-03T00:25:22;10.77;;;2.47;;
14518;SDS011;7346;50.846;4.388;2022-11-03T00:27:53;14.63;;;2.60;;
14518;SDS011;7346;50.846;4.388;2022-11-03T00:30:21;10.87;;;2.33;;
14518;SDS011;7346;50.846;4.388;2022-11-03T00:32:47;13.53;;;2.77;;
14518;SDS011;7346;50.846;4.388;2022-11-03T00:35:14;9.77;;;2.47;;
14518;SDS011;7346;50.846;4.388;2022-11-03T00:37:43;12.10;;;2.13;;
14518;SDS011;7346;50.846;4.388;2022-11-03T00:40:10;10.97;;;2.87;;
14518;SDS011;7346;50.846;4.388;2022-11-03T00:42:37;12.60;;;2.87;;
14518;SDS011;7346;50.846;4.388;2022-11-03T00:45:05;14.10;;;2.93;;
14518;SDS011;7346;50.846;4.388;2022-11-03T00:47:33;14.93;;;2.70;;
14518;SDS011;7346;50.846;4.388;2022-11-03T00:50:20;11.60;;;2.77;;
14518;SDS011;7346;50.846;4.388;2022-11-03T00:52:48;8.90;;;2.50;;
14518;SDS011;7346;50.846;4.388;2022-11-03T00:55:15;12.60;;;2.50;;
14518;SDS011;7346;50.846;4.388;2022-11-03T00:57:42;10.07;;;1.80;;
14518;SDS011;7346;50.846;4.388;2022-11-03T01:00:09;15.83;;;3.03;;
14518;SDS011;7346;50.846;4.388;2022-11-03T01:02:37;14.50;;;2.87;;
14518;SDS011;7346;50.846;4.388;2022-11-03T01:05:04;14.10;;;3.10;;
14518;SDS011;7346;50.846;4.388;2022-11-03T01:07:50;11.37;;;2.80;;
14518;SDS011;7346;50.846;4.388;2022-11-03T01:10:18;14.47;;;2.70;;
14518;SDS011;7346;50.846;4.388;2022-11-03T01:12:45;13.37;;;2.50;;
14518;SDS011;7346;50.846;4.388;2022-11-03T01:15:12;10.67;;;2.43;;
14518;SDS011;7346;50.846;4.388;2022-11-03T01:17:39;12.07;;;3.10;;
14518;SDS011;7346;50.846;4.388;2022-11-03T01:20:06;8.13;;;2.27;;
14518;SDS011;7346;50.846;4.388;2022-11-03T01:22:34;8.27;;;2.30;;
14518;SDS011;7346;50.846;4.388;2022-11-03T01:25:02;9.97;;;2.37;;
14518;SDS011;7346;50.846;4.388;2022-11-03T01:27:29;10.77;;;2.13;;
14518;SDS011;7346;50.846;4.388;2022-11-03T01:29:59;12.90;;;2.33;;
14518;SDS011;7346;50.846;4.388;2022-11-03T01:32:26;13.37;;;2.47;;
14518;SDS011;7346;50.846;4.388;2022-11-03T01:34:53;12.40;;;2.60;;
14518;SDS011;7346;50.846;4.388;2022-11-03T01:37:20;9.33;;;2.50;;
14518;SDS011;7346;50.846;4.388;2022-11-03T01:39:47;11.50;;;2.60;;
14518;SDS011;7346;50.846;4.388;2022-11-03T01:42:15;15.40;;;3.17;;
14518;SDS011;7346;50.846;4.388;2022-11-03T01:44:42;10.73;;;2.50;;
14518;SDS011;7346;50.846;4.388;2022-11-03T01:47:13;12.70;;;2.53;;
14518;SDS011;7346;50.846;4.388;2022-11-03T01:49:46;11.33;;;2.73;;
14518;SDS011;7346;50.846;4.388;2022-11-03T01:52:16;14.07;;;2.20;;
14518;SDS011;7346;50.846;4.388;2022-11-03T01:54:47;12.10;;;2.37;;
14518;SDS011;7346;50.846;4.388;2022-11-03T01:57:19;12.60;;;2.67;;
14518;SDS011;7346;50.846;4.388;2022-11-03T01:59:49;8.23;;;2.07;;
14518;SDS011;7346;50.846;4.388;2022-11-03T02:02:18;11.53;;;2.27;;
14518;SDS011;7346;50.846;4.388;2022-11-03T02:04:45;11.33;;;2.60;;
14518;SDS011;7346;50.846;4.388;2022-11-03T02:07:13;11.00;;;2.50;;
14518;SDS011;7346;50.846;4.388;2022-11-03T02:09:45;16.33;;;2.67;;
14518;SDS011;7346;50.846;4.388;2022-11-03T02:12:12;10.87;;;2.30;;
14518;SDS011;7346;50.846;4.388;2022-11-03T02:14:44;10.87;;;2.47;;
14518;SDS011;7346;50.846;4.388;2022-11-03T02:17:17;10.87;;;2.47;;
14518;SDS011;7346;50.846;4.388;2022-11-03T02:19:47;11.43;;;3.00;;
14518;SDS011;7346;50.846;4.388;2022-11-03T02:22:29;9.63;;;2.20;;
14518;SDS011;7346;50.846;4.388;2022-11-03T02:25:33;8.27;;;2.40;;
14518;SDS011;7346;50.846;4.388;2022-11-03T02:28:02;7.67;;;2.37;;
14518;SDS011;7346;50.846;4.388;2022-11-03T02:30:30;10.47;;;2.30;;
14518;SDS011;7346;50.846;4.388;2022-11-03T02:33:05;8.93;;;1.90;;
14518;SDS011;7346;50.846;4.388;2022-11-03T02:35:41;4.93;;;2.03;;
14518;SDS011;7346;50.846;4.388;2022-11-03T02:38:13;10.77;;;2.10;;
14518;SDS011;7346;50.846;4.388;2022-11-03T02:40:45;9.93;;;2.60;;
14518;SDS011;7346;50.846;4.388;2022-11-03T02:43:14;9.77;;;2.03;;
14518;SDS011;7346;50.846;4.388;2022-11-03T02:45:43;8.93;;;2.30;;
14518;SDS011;7346;50.846;4.388;2022-11-03T02:48:12;8.73;;;2.27;;
14518;SDS011;7346;50.846;4.388;2022-11-03T02:50:40;11.57;;;2.37;;
14518;SDS011;7346;50.846;4.388;2022-11-03T02:53:08;13.03;;;2.50;;
14518;SDS011;7346;50.846;4.388;2022-11-03T02:55:37;11.17;;;2.50;;
14518;SDS011;7346;50.846;4.388;2022-11-03T02:58:09;10.70;;;2.50;;
14518;SDS011;7346;50.846;4.388;2022-11-03T03:00:44;9.63;;;2.23;;
14518;SDS011;7346;50.846;4.388;2022-11-03T03:03:16;14.17;;;2.50;;
14518;SDS011;7346;50.846;4.388;2022-11-03T03:05:47;10.63;;;2.50;;
14518;SDS011;7346;50.846;4.388;2022-11-03T03:08:18;9.53;;;2.53;;
14518;SDS011;7346;50.846;4.388;2022-11-03T03:10:47;7.80;;;2.00;;
14518;SDS011;7346;50.846;4.388;2022-11-03T03:13:16;9.13;;;2.00;;
14518;SDS011;7346;50.846;4.388;2022-11-03T03:15:46;9.53;;;2.67;;
14518;SDS011;7346;50.846;4.388;2022-11-03T03:18:22;14.33;;;2.23;;
14518;SDS011;7346;50.846;4.388;2022-11-03T03:20:55;10.00;;;2.30;;
14518;SDS011;7346;50.846;4.388;2022-11-03T03:23:28;12.50;;;2.20;;
14518;SDS011;7346;50.846;4.388;2022-11-03T03:25:59;10.40;;;2.07;;
14518;SDS011;7346;50.846;4.388;2022-11-03T03:28:31;11.20;;;2.67;;
14518;SDS011;7346;50.846;4.388;2022-11-03T03:31:03;8.03;;;2.30;;
14518;SDS011;7346;50.846;4.388;2022-11-03T03:33:33;11.87;;;2.40;;
14518;SDS011;7346;50.846;4.388;2022-11-03T03:36:01;11.10;;;2.27;;
14518;SDS011;7346;50.846;4.388;2022-11-03T03:38:32;11.40;;;2.60;;
14518;SDS011;7346;50.846;4.388;2022-11-03T03:41:03;10.93;;;2.27;;
14518;SDS011;7346;50.846;4.388;2022-11-03T03:43:34;9.70;;;2.10;;
14518;SDS011;7346;50.846;4.388;2022-11-03T03:46:03;8.00;;;2.10;;
14518;SDS011;7346;50.846;4.388;2022-11-03T03:48:33;12.97;;;2.80;;
14518;SDS011;7346;50.846;4.388;2022-11-03T03:51:00;6.53;;;2.23;;
14518;SDS011;7346;50.846;4.388;2022-11-03T03:53:28;13.00;;;2.87;;
14518;SDS011;7346;50.846;4.388;2022-11-03T03:55:55;8.53;;;2.60;;
14518;SDS011;7346;50.846;4.388;2022-11-03T03:58:24;12.53;;;2.53;;
14518;SDS011;7346;50.846;4.388;2022-11-03T04:00:52;13.37;;;2.40;;
14518;SDS011;7346;50.846;4.388;2022-11-03T04:03:20;14.37;;;2.50;;
14518;SDS011;7346;50.846;4.388;2022-11-03T04:05:47;12.40;;;2.50;;
14518;SDS011;7346;50.846;4.388;2022-11-03T04:08:15;12.13;;;2.33;;
14518;SDS011;7346;50.846;4.388;2022-11-03T04:10:43;10.37;;;2.80;;
14518;SDS011;7346;50.846;4.388;2022-11-03T04:13:30;8.77;;;2.00;;
14518;SDS011;7346;50.846;4.388;2022-11-03T04:16:31;9.53;;;2.10;;
14518;SDS011;7346;50.846;4.388;2022-11-03T04:19:24;11.10;;;2.47;;
14518;SDS011;7346;50.846;4.388;2022-11-03T04:22:08;10.37;;;2.60;;
14518;SDS011;7346;50.846;4.388;2022-11-03T04:24:45;13.83;;;2.70;;
14518;SDS011;7346;50.846;4.388;2022-11-03T04:27:25;11.00;;;2.50;;
14518;SDS011;7346;50.846;4.388;2022-11-03T04:29:55;10.30;;;2.37;;
14518;SDS011;7346;50.846;4.388;2022-11-03T04:32:27;14.27;;;2.40;;
14518;SDS011;7346;50.846;4.388;2022-11-03T04:34:54;9.93;;;2.30;;
14518;SDS011;7346;50.846;4.388;2022-11-03T04:37:21;11.40;;;2.70;;
14518;SDS011;7346;50.846;4.388;2022-11-03T04:39:47;10.80;;;2.30;;
14518;SDS011;7346;50.846;4.388;2022-11-03T04:42:15;12.53;;;2.73;;
14518;SDS011;7346;50.846;4.388;2022-11-03T04:44:44;12.13;;;2.77;;
14518;SDS011;7346;50.846;4.388;2022-11-03T04:47:12;11.43;;;2.70;;
14518;SDS011;7346;50.846;4.388;2022-11-03T04:49:41;13.00;;;2.40;;
14518;SDS011;7346;50.846;4.388;2022-11-03T04:52:09;12.83;;;2.50;;
14518;SDS011;7346;50.846;4.388;2022-11-03T04:54:40;11.03;;;2.40;;
14518;SDS011;7346;50.846;4.388;2022-11-03T04:57:08;11.90;;;2.33;;
14518;SDS011;7346;50.846;4.388;2022-11-03T04:59:37;11.33;;;2.53;;
14518;SDS011;7346;50.846;4.388;2022-11-03T05:02:07;10.67;;;2.30;;
14518;SDS011;7346;50.846;4.388;2022-11-03T05:04:36;10.17;;;2.77;;
14518;SDS011;7346;50.846;4.388;2022-11-03T05:07:07;13.27;;;2.80;;
14518;SDS011;7346;50.846;4.388;2022-11-03T05:09:48;13.80;;;2.23;;
14518;SDS011;7346;50.846;4.388;2022-11-03T05:12:16;10.40;;;2.63;;
14518;SDS011;7346;50.846;4.388;2022-11-03T05:14:44;11.53;;;2.33;;
14518;SDS011;7346;50.846;4.388;2022-11-03T05:17:14;14.07;;;2.50;;
14518;SDS011;7346;50.846;4.388;2022-11-03T05:19:46;11.27;;;2.80;;
14518;SDS011;7346;50.846;4.388;2022-11-03T05:22:16;11.93;;;2.73;;
14518;SDS011;7346;50.846;4.388;2022-11-03T05:24:45;13.40;;;3.40;;
14518;SDS011;7346;50.846;4.388;2022-11-03T05:27:15;12.00;;;2.73;;
14518;SDS011;7346;50.846;4.388;2022-11-03T05:29:45;11.70;;;2.40;;
14518;SDS011;7346;50.846;4.388;2022-11-03T05:32:13;11.27;;;2.60;;
14518;SDS011;7346;50.846;4.388;2022-11-03T05:34:45;10.13;;;2.67;;
14518;SDS011;7346;50.846;4.388;2022-11-03T05:37:24;13.83;;;3.00;;
14518;SDS011;7346;50.846;4.388;2022-11-03T05:39:54;10.07;;;2.47;;
14518;SDS011;7346;50.846;4.388;2022-11-03T05:42:26;12.90;;;2.77;;
14518;SDS011;7346;50.846;4.388;2022-11-03T05:44:56;12.23;;;2.70;;
14518;SDS011;7346;50.846;4.388;2022-11-03T05:47:26;10.77;;;2.77;;
14518;SDS011;7346;50.846;4.388;2022-11-03T05:49:59;12.93;;;3.20;;
14518;SDS011;7346;50.846;4.388;2022-11-03T05:52:38;15.00;;;2.73;;
14518;SDS011;7346;50.846;4.388;2022-11-03T05:55:11;10.83;;;2.20;;
14518;SDS011;7346;50.846;4.388;2022-11-03T05:57:46;11.67;;;2.50;;
14518;SDS011;7346;50.846;4.388;2022-11-03T06:00:20;10.27;;;2.57;;
14518;SDS011;7346;50.846;4.388;2022-11-03T06:02:52;15.03;;;3.30;;
14518;SDS011;7346;50.846;4.388;2022-11-03T06:05:20;14.00;;;2.83;;
14518;SDS011;7346;50.846;4.388;2022-11-03T06:07:50;11.20;;;3.17;;
14518;SDS011;7346;50.846;4.388;2022-11-03T06:10:20;13.33;;;3.03;;
14518;SDS011;7346;50.846;4.388;2022-11-03T06:12:50;10.90;;;2.50;;
14518;SDS011;7346;50.846;4.388;2022-11-03T06:15:23;10.33;;;2.30;;
14518;SDS011;7346;50.846;4.388;2022-11-03T06:17:54;13.37;;;3.33;;
14518;SDS011;7346;50.846;4.388;2022-11-03T06:20:22;11.37;;;2.53;;
14518;SDS011;7346;50.846;4.388;2022-11-03T06:22:51;14.90;;;3.00;;
14518;SDS011;7346;50.846;4.388;2022-11-03T06:25:21;9.37;;;2.50;;
14518;SDS011;7346;50.846;4.388;2022-11-03T06:27:53;12.90;;;3.20;;
14518;SDS011;7346;50.846;4.388;2022-11-03T06:30:25;10.00;;;2.57;;
14518;SDS011;7346;50.846;4.388;2022-11-03T06:32:56;12.33;;;3.10;;
14518;SDS011;7346;50.846;4.388;2022-11-03T06:35:24;13.13;;;3.00;;
14518;SDS011;7346;50.846;4.388;2022-11-03T06:37:53;11.33;;;2.80;;
14518;SDS011;7346;50.846;4.388;2022-11-03T06:40:29;12.57;;;2.80;;
14518;SDS011;7346;50.846;4.388;2022-11-03T06:43:00;14.93;;;2.50;;
14518;SDS011;7346;50.846;4.388;2022-11-03T06:45:51;12.07;;;4.00;;
14518;SDS011;7346;50.846;4.388;2022-11-03T06:48:22;16.80;;;4.00;;
14518;SDS011;7346;50.846;4.388;2022-11-03T06:50:50;21.73;;;6.53;;
14518;SDS011;7346;50.846;4.388;2022-11-03T06:53:20;24.83;;;7.93;;
14518;SDS011;7346;50.846;4.388;2022-11-03T06:55:49;60.53;;;10.33;;
14518;SDS011;7346;50.846;4.388;2022-11-03T06:58:18;21.17;;;6.53;;
14518;SDS011;7346;50.846;4.388;2022-11-03T07:00:54;17.77;;;6.97;;
14518;SDS011;7346;50.846;4.388;2022-11-03T07:03:24;19.17;;;6.30;;
14518;SDS011;7346;50.846;4.388;2022-11-03T07:05:55;20.97;;;5.37;;
14518;SDS011;7346;50.846;4.388;2022-11-03T07:08:25;18.03;;;5.73;;
14518;SDS011;7346;50.846;4.388;2022-11-03T07:11:00;19.97;;;6.47;;
14518;SDS011;7346;50.846;4.388;2022-11-03T07:13:30;18.80;;;7.00;;
14518;SDS011;7346;50.846;4.388;2022-11-03T07:15:58;15.40;;;6.00;;
14518;SDS011;7346;50.846;4.388;2022-11-03T07:18:26;19.60;;;6.10;;
14518;SDS011;7346;50.846;4.388;2022-11-03T07:20:56;12.53;;;4.33;;
14518;SDS011;7346;50.846;4.388;2022-11-03T07:23:27;15.47;;;4.73;;
14518;SDS011;7346;50.846;4.388;2022-11-03T07:25:58;13.27;;;3.43;;
14518;SDS011;7346;50.846;4.388;2022-11-03T07:28:28;10.97;;;3.17;;
14518;SDS011;7346;50.846;4.388;2022-11-03T07:30:58;14.30;;;3.70;;
14518;SDS011;7346;50.846;4.388;2022-11-03T07:33:26;11.07;;;3.40;;
14518;SDS011;7346;50.846;4.388;2022-11-03T07:35:56;16.57;;;4.20;;
14518;SDS011;7346;50.846;4.388;2022-11-03T07:38:26;12.57;;;3.10;;
14518;SDS011;7346;50.846;4.388;2022-11-03T07:40:55;15.33;;;3.53;;
14518;SDS011;7346;50.846;4.388;2022-11-03T07:43:26;12.43;;;3.07;;
14518;SDS011;7346;50.846;4.388;2022-11-03T07:45:55;14.10;;;3.03;;
14518;SDS011;7346;50.846;4.388;2022-11-03T07:48:24;14.53;;;3.07;;
14518;SDS011;7346;50.846;4.388;2022-11-03T07:50:54;11.40;;;3.00;;
14518;SDS011;7346;50.846;4.388;2022-11-03T07:53:30;11.63;;;2.83;;
14518;SDS011;7346;50.846;4.388;2022-11-03T07:56:02;11.97;;;2.70;;
14518;SDS011;7346;50.846;4.388;2022-11-03T07:58:40;12.53;;;2.90;;
14518;SDS011;7346;50.846;4.388;2022-11-03T08:01:15;13.20;;;2.57;;
14518;SDS011;7346;50.846;4.388;2022-11-03T08:03:50;11.87;;;3.00;;
14518;SDS011;7346;50.846;4.388;2022-11-03T08:06:19;13.63;;;2.90;;
14518;SDS011;7346;50.846;4.388;2022-11-03T08:08:48;9.50;;;2.67;;
14518;SDS011;7346;50.846;4.388;2022-11-03T08:11:14;9.83;;;2.60;;
14518;SDS011;7346;50.846;4.388;2022-11-03T08:13:41;11.10;;;2.60;;
14518;SDS011;7346;50.846;4.388;2022-11-03T08:16:08;10.67;;;2.30;;
14518;SDS011;7346;50.846;4.388;2022-11-03T08:18:36;12.33;;;2.60;;
14518;SDS011;7346;50.846;4.388;2022-11-03T08:21:03;10.13;;;2.40;;
14518;SDS011;7346;50.846;4.388;2022-11-03T08:23:30;11.20;;;2.70;;
14518;SDS011;7346;50.846;4.388;2022-11-03T08:25:58;9.37;;;2.20;;
14518;SDS011;7346;50.846;4.388;2022-11-03T08:28:25;8.03;;;2.27;;
14518;SDS011;7346;50.846;4.388;2022-11-03T08:30:52;7.80;;;2.50;;
14518;SDS011;7346;50.846;4.388;2022-11-03T08:33:19;8.27;;;2.63;;
14518;SDS011;7346;50.846;4.388;2022-11-03T08:35:46;13.33;;;2.30;;
14518;SDS011;7346;50.846;4.388;2022-11-03T08:38:13;12.77;;;2.60;;
14518;SDS011;7346;50.846;4.388;2022-11-03T08:40:40;13.20;;;2.37;;
14518;SDS011;7346;50.846;4.388;2022-11-03T08:43:08;11.37;;;2.37;;
14518;SDS011;7346;50.846;4.388;2022-11-03T08:45:35;9.87;;;2.47;;
14518;SDS011;7346;50.846;4.388;2022-11-03T08:48:02;9.00;;;2.20;;
14518;SDS011;7346;50.846;4.388;2022-11-03T08:50:29;8.77;;;2.17;;
14518;SDS011;7346;50.846;4.388;2022-11-03T08:52:56;11.80;;;2.30;;
14518;SDS011;7346;50.846;4.388;2022-11-03T08:55:23;10.13;;;2.03;;
14518;SDS011;7346;50.846;4.388;2022-11-03T08:57:50;11.53;;;2.63;;
14518;SDS011;7346;50.846;4.388;2022-11-03T09:00:19;10.77;;;2.53;;
14518;SDS011;7346;50.846;4.388;2022-11-03T09:02:46;8.27;;;2.27;;
14518;SDS011;7346;50.846;4.388;2022-11-03T09:05:13;7.87;;;2.10;;
14518;SDS011;7346;50.846;4.388;2022-11-03T09:07:40;9.73;;;2.17;;
14518;SDS011;7346;50.846;4.388;2022-11-03T09:10:07;10.27;;;2.00;;
14518;SDS011;7346;50.846;4.388;2022-11-03T09:12:35;8.93;;;3.53;;
14518;SDS011;7346;50.846;4.388;2022-11-03T09:15:03;6.63;;;1.70;;
14518;SDS011;7346;50.846;4.388;2022-11-03T09:17:32;9.47;;;2.47;;
14518;SDS011;7346;50.846;4.388;2022-11-03T09:19:59;6.93;;;2.30;;
14518;SDS011;7346;50.846;4.388;2022-11-03T09:22:26;10.07;;;2.40;;
14518;SDS011;7346;50.846;4.388;2022-11-03T09:24:53;8.53;;;3.10;;
14518;SDS011;7346;50.846;4.388;2022-11-03T09:27:19;8.37;;;2.53;;
14518;SDS011;7346;50.846;4.388;2022-11-03T09:29:46;8.37;;;2.70;;
14518;SDS011;7346;50.846;4.388;2022-11-03T09:32:13;9.33;;;2.73;;
14518;SDS011;7346;50.846;4.388;2022-11-03T09:34:42;11.70;;;2.53;;
14518;SDS011;7346;50.846;4.388;2022-11-03T09:37:09;12.87;;;2.00;;
14518;SDS011;7346;50.846;4.388;2022-11-03T09:39:36;7.40;;;2.13;;
14518;SDS011;7346;50.846;4.388;2022-11-03T09:42:03;7.83;;;2.20;;
14518;SDS011;7346;50.846;4.388;2022-11-03T09:44:31;6.23;;;2.30;;
14518;SDS011;7346;50.846;4.388;2022-11-03T09:46:59;9.77;;;2.63;;
14518;SDS011;7346;50.846;4.388;2022-11-03T09:49:27;11.07;;;2.70;;
14518;SDS011;7346;50.846;4.388;2022-11-03T09:51:57;9.40;;;2.10;;
14518;SDS011;7346;50.846;4.388;2022-11-03T09:54:25;9.90;;;2.03;;
14518;SDS011;7346;50.846;4.388;2022-11-03T09:56:54;6.87;;;2.20;;
14518;SDS011;7346;50.846;4.388;2022-11-03T09:59:23;6.10;;;2.20;;
14518;SDS011;7346;50.846;4.388;2022-11-03T10:01:50;7.77;;;2.33;;
14518;SDS011;7346;50.846;4.388;2022-11-03T10:04:19;8.20;;;1.93;;
14518;SDS011;7346;50.846;4.388;2022-11-03T10:06:50;5.03;;;1.50;;
14518;SDS011;7346;50.846;4.388;2022-11-03T10:09:18;6.27;;;1.90;;
14518;SDS011;7346;50.846;4.388;2022-11-03T10:11:47;5.40;;;2.03;;
14518;SDS011;7346;50.846;4.388;2022-11-03T10:14:16;6.93;;;2.37;;
14518;SDS011;7346;50.846;4.388;2022-11-03T10:16:47;8.23;;;2.10;;
14518;SDS011;7346;50.846;4.388;2022-11-03T10:19:17;10.33;;;2.40;;
14518;SDS011;7346;50.846;4.388;2022-11-03T10:21:44;6.57;;;1.93;;
14518;SDS011;7346;50.846;4.388;2022-11-03T10:24:12;7.87;;;2.30;;
14518;SDS011;7346;50.846;4.388;2022-11-03T10:26:44;12.20;;;1.97;;
14518;SDS011;7346;50.846;4.388;2022-11-03T10:29:16;6.73;;;2.27;;
14518;SDS011;7346;50.846;4.388;2022-11-03T10:31:45;6.83;;;2.17;;
14518;SDS011;7346;50.846;4.388;2022-11-03T10:37:10;6.57;;;1.90;;
14518;SDS011;7346;50.846;4.388;2022-11-03T10:39:41;9.43;;;2.70;;
14518;SDS011;7346;50.846;4.388;2022-11-03T10:42:16;8.57;;;1.57;;
14518;SDS011;7346;50.846;4.388;2022-11-03T10:44:44;4.47;;;1.90;;
14518;SDS011;7346;50.846;4.388;2022-11-03T10:47:21;9.53;;;1.93;;
14518;SDS011;7346;50.846;4.388;2022-11-03T10:49:56;11.07;;;2.33;;
14518;SDS011;7346;50.846;4.388;2022-11-03T10:52:24;6.80;;;2.03;;
14518;SDS011;7346;50.846;4.388;2022-11-03T10:54:54;6.80;;;1.77;;
14518;SDS011;7346;50.846;4.388;2022-11-03T10:57:26;10.23;;;2.57;;
14518;SDS011;7346;50.846;4.388;2022-11-03T10:59:53;7.63;;;1.90;;
14518;SDS011;7346;50.846;4.388;2022-11-03T11:02:21;7.33;;;2.23;;
14518;SDS011;7346;50.846;4.388;2022-11-03T11:04:51;5.97;;;2.07;;
14518;SDS011;7346;50.846;4.388;2022-11-03T11:07:23;9.37;;;1.90;;
14518;SDS011;7346;50.846;4.388;2022-11-03T11:09:54;8.43;;;2.07;;
14518;SDS011;7346;50.846;4.388;2022-11-03T11:12:22;4.70;;;1.73;;
14518;SDS011;7346;50.846;4.388;2022-11-03T11:14:51;5.47;;;1.77;;
14518;SDS011;7346;50.846;4.388;2022-11-03T11:17:39;7.57;;;1.90;;
14518;SDS011;7346;50.846;4.388;2022-11-03T11:26:12;3.47;;;1.80;;
14518;SDS011;7346;50.846;4.388;2022-11-03T11:28:42;5.50;;;2.57;;
14518;SDS011;7346;50.846;4.388;2022-11-03T11:31:30;6.63;;;1.90;;
14518;SDS011;7346;50.846;4.388;2022-11-03T11:40:00;6.87;;;1.80;;
14518;SDS011;7346;50.846;4.388;2022-11-03T11:42:27;5.43;;;1.70;;
14518;SDS011;7346;50.846;4.388;2022-11-03T11:44:57;6.17;;;1.57;;
14518;SDS011;7346;50.846;4.388;2022-11-03T11:47:32;9.90;;;2.10;;
14518;SDS011;7346;50.846;4.388;2022-11-03T11:50:20;5.83;;;2.00;;
14518;SDS011;7346;50.846;4.388;2022-11-03T11:52:50;6.33;;;1.77;;
14518;SDS011;7346;50.846;4.388;2022-11-03T11:55:25;5.60;;;1.50;;
14518;SDS011;7346;50.846;4.388;2022-11-03T11:57:59;7.97;;;1.70;;
14518;SDS011;7346;50.846;4.388;2022-11-03T12:00:29;5.90;;;1.70;;
14518;SDS011;7346;50.846;4.388;2022-11-03T12:02:58;5.10;;;1.70;;
14518;SDS011;7346;50.846;4.388;2022-11-03T12:05:28;8.90;;;1.90;;
14518;SDS011;7346;50.846;4.388;2022-11-03T12:07:57;7.37;;;1.40;;
14518;SDS011;7346;50.846;4.388;2022-11-03T12:10:25;12.93;;;1.97;;
14518;SDS011;7346;50.846;4.388;2022-11-03T12:12:54;3.60;;;1.50;;
14518;SDS011;7346;50.846;4.388;2022-11-03T12:18:31;6.17;;;2.73;;
14518;SDS011;7346;50.846;4.388;2022-11-03T12:21:03;5.30;;;2.67;;
14518;SDS011;7346;50.846;4.388;2022-11-03T12:23:36;7.10;;;4.17;;
14518;SDS011;7346;50.846;4.388;2022-11-03T12:26:05;5.17;;;2.13;;
14518;SDS011;7346;50.846;4.388;2022-11-03T12:28:39;5.50;;;1.90;;
14518;SDS011;7346;50.846;4.388;2022-11-03T12:31:06;5.00;;;1.90;;
14518;SDS011;7346;50.846;4.388;2022-11-03T12:33:34;4.17;;;1.57;;
14518;SDS011;7346;50.846;4.388;2022-11-03T12:36:01;5.73;;;1.57;;
14518;SDS011;7346;50.846;4.388;2022-11-03T12:38:28;7.13;;;2.10;;
14518;SDS011;7346;50.846;4.388;2022-11-03T12:40:55;3.23;;;1.80;;
14518;SDS011;7346;50.846;4.388;2022-11-03T12:43:22;6.30;;;2.47;;
14518;SDS011;7346;50.846;4.388;2022-11-03T12:45:49;4.07;;;1.70;;
14518;SDS011;7346;50.846;4.388;2022-11-03T12:48:16;3.70;;;1.60;;
14518;SDS011;7346;50.846;4.388;2022-11-03T12:50:45;4.50;;;1.97;;
14518;SDS011;7346;50.846;4.388;2022-11-03T12:53:12;5.43;;;2.00;;
14518;SDS011;7346;50.846;4.388;2022-11-03T12:55:38;5.40;;;1.77;;
14518;SDS011;7346;50.846;4.388;2022-11-03T12:58:07;6.87;;;2.00;;
14518;SDS011;7346;50.846;4.388;2022-11-03T13:00:33;6.90;;;1.83;;
14518;SDS011;7346;50.846;4.388;2022-11-03T13:03:00;5.90;;;1.90;;
14518;SDS011;7346;50.846;4.388;2022-11-03T13:05:27;10.03;;;2.07;;
14518;SDS011;7346;50.846;4.388;2022-11-03T13:07:56;5.97;;;2.20;;
14518;SDS011;7346;50.846;4.388;2022-11-03T13:10:22;6.27;;;1.80;;
14518;SDS011;7346;50.846;4.388;2022-11-03T13:12:49;4.40;;;1.97;;
14518;SDS011;7346;50.846;4.388;2022-11-03T13:15:16;6.73;;;1.77;;
14518;SDS011;7346;50.846;4.388;2022-11-03T13:17:43;6.03;;;1.90;;
14518;SDS011;7346;50.846;4.388;2022-11-03T13:20:10;8.57;;;1.83;;
14518;SDS011;7346;50.846;4.388;2022-11-03T13:22:40;7.10;;;2.13;;
14518;SDS011;7346;50.846;4.388;2022-11-03T13:25:08;4.67;;;1.87;;
14518;SDS011;7346;50.846;4.388;2022-11-03T13:27:35;5.23;;;1.90;;
14518;SDS011;7346;50.846;4.388;2022-11-03T13:30:02;6.83;;;1.77;;
14518;SDS011;7346;50.846;4.388;2022-11-03T13:32:31;7.70;;;2.10;;
14518;SDS011;7346;50.846;4.388;2022-11-03T13:34:58;6.77;;;2.47;;
14518;SDS011;7346;50.846;4.388;2022-11-03T13:37:25;4.30;;;1.77;;
14518;SDS011;7346;50.846;4.388;2022-11-03T13:39:52;7.07;;;2.73;;
14518;SDS011;7346;50.846;4.388;2022-11-03T13:42:20;5.37;;;1.97;;
14518;SDS011;7346;50.846;4.388;2022-11-03T13:44:47;10.73;;;2.43;;
14518;SDS011;7346;50.846;4.388;2022-11-03T13:47:14;6.17;;;2.23;;
14518;SDS011;7346;50.846;4.388;2022-11-03T13:49:41;6.53;;;2.20;;
14518;SDS011;7346;50.846;4.388;2022-11-03T13:52:08;5.07;;;2.03;;
14518;SDS011;7346;50.846;4.388;2022-11-03T13:54:35;4.50;;;1.83;;
14518;SDS011;7346;50.846;4.388;2022-11-03T13:57:02;4.13;;;2.10;;
14518;SDS011;7346;50.846;4.388;2022-11-03T13:59:31;5.43;;;1.83;;
14518;SDS011;7346;50.846;4.388;2022-11-03T14:01:59;4.57;;;2.03;;
14518;SDS011;7346;50.846;4.388;2022-11-03T14:04:25;4.53;;;2.13;;
14518;SDS011;7346;50.846;4.388;2022-11-03T14:06:52;5.30;;;2.00;;
14518;SDS011;7346;50.846;4.388;2022-11-03T14:09:19;4.40;;;1.90;;
14518;SDS011;7346;50.846;4.388;2022-11-03T14:11:46;5.30;;;1.93;;
14518;SDS011;7346;50.846;4.388;2022-11-03T14:14:33;5.10;;;1.83;;
14518;SDS011;7346;50.846;4.388;2022-11-03T14:17:00;6.03;;;1.87;;
14518;SDS011;7346;50.846;4.388;2022-11-03T14:19:27;5.67;;;2.23;;
14518;SDS011;7346;50.846;4.388;2022-11-03T14:21:54;5.77;;;2.17;;
14518;SDS011;7346;50.846;4.388;2022-11-03T14:24:21;6.90;;;2.67;;
14518;SDS011;7346;50.846;4.388;2022-11-03T14:26:48;5.60;;;2.17;;
14518;SDS011;7346;50.846;4.388;2022-11-03T14:29:15;3.67;;;1.80;;
14518;SDS011;7346;50.846;4.388;2022-11-03T14:31:43;6.27;;;2.00;;
14518;SDS011;7346;50.846;4.388;2022-11-03T14:34:10;7.70;;;1.93;;
14518;SDS011;7346;50.846;4.388;2022-11-03T14:36:37;5.27;;;2.13;;
14518;SDS011;7346;50.846;4.388;2022-11-03T14:39:04;5.60;;;2.40;;
14518;SDS011;7346;50.846;4.388;2022-11-03T14:41:31;8.17;;;2.40;;
14518;SDS011;7346;50.846;4.388;2022-11-03T14:44:15;6.07;;;2.17;;
14518;SDS011;7346;50.846;4.388;2022-11-03T14:46:43;6.23;;;2.23;;
14518;SDS011;7346;50.846;4.388;2022-11-03T14:49:10;5.97;;;2.00;;
14518;SDS011;7346;50.846;4.388;2022-11-03T14:51:37;3.47;;;2.00;;
14518;SDS011;7346;50.846;4.388;2022-11-03T14:54:04;6.23;;;2.37;;
14518;SDS011;7346;50.846;4.388;2022-11-03T14:56:31;4.33;;;2.33;;
14518;SDS011;7346;50.846;4.388;2022-11-03T14:58:58;6.03;;;2.40;;
14518;SDS011;7346;50.846;4.388;2022-11-03T15:01:25;7.60;;;2.37;;
14518;SDS011;7346;50.846;4.388;2022-11-03T15:03:53;4.10;;;2.03;;
14518;SDS011;7346;50.846;4.388;2022-11-03T15:06:20;7.17;;;2.63;;
14518;SDS011;7346;50.846;4.388;2022-11-03T15:08:47;4.33;;;2.03;;
14518;SDS011;7346;50.846;4.388;2022-11-03T15:11:13;6.60;;;2.87;;
14518;SDS011;7346;50.846;4.388;2022-11-03T15:13:40;4.93;;;2.60;;
14518;SDS011;7346;50.846;4.388;2022-11-03T15:16:07;8.50;;;2.90;;
14518;SDS011;7346;50.846;4.388;2022-11-03T15:18:34;7.90;;;2.60;;
14518;SDS011;7346;50.846;4.388;2022-11-03T15:21:02;7.20;;;2.60;;
14518;SDS011;7346;50.846;4.388;2022-11-03T15:23:30;8.83;;;2.70;;
14518;SDS011;7346;50.846;4.388;2022-11-03T15:25:57;4.10;;;2.40;;
14518;SDS011;7346;50.846;4.388;2022-11-03T15:28:24;7.10;;;2.73;;